Erda, Utah
Current Conditions -  °F | °C
As of 7:25 AM on Sunday 23 Nov 2014 (Local Time) from KSLC Reporting Station
Light Snow Light Snow  
Wind Chill: 23°   Ceiling: 1500
Heat Index: 32°   Visibility: 1mi
Dew Point: 28°   Wind: 13mph
Humidity: 85%   Direction: 340°NNW
Pressure: 30.16"   Gusts: NA
Location:  40.5393°N, 112.353°W
Report Text: KSLC 231425Z 34011KT 1SM R34R/3500VP6000FT -SN BR BKN015 OVC034 00/M02 A3016 RMK AO2 TWR VIS 2 P0000 T00001022
Loading
Personal Weather Stations






























Interactive Weather Map New forecast layout! Learn more

10-Day Weather Forecast

Advertisements
Track Severe Weather on mobile